createdAt,value
2023-04-29T00:00:13.667Z,996.02
2023-04-29T00:01:13.975Z,996.05
2023-04-29T00:02:13.498Z,996.01
2023-04-29T00:03:13.572Z,995.99
2023-04-29T00:04:13.740Z,995.98
2023-04-29T00:05:13.975Z,996.01
2023-04-29T00:06:13.281Z,995.98
2023-04-29T00:07:13.160Z,995.99
2023-04-29T00:08:13.254Z,996.05
2023-04-29T00:09:13.193Z,996.05
2023-04-29T00:10:13.262Z,996.00
2023-04-29T00:11:13.170Z,995.98
2023-04-29T00:12:13.378Z,996.02
2023-04-29T00:13:13.388Z,995.99
2023-04-29T00:14:13.607Z,996.00
2023-04-29T00:15:13.515Z,995.95
2023-04-29T00:16:13.594Z,995.95
2023-04-29T00:17:13.743Z,995.98
2023-04-29T00:18:14.012Z,996.00
2023-04-29T00:19:13.023Z,995.97
2023-04-29T00:20:12.937Z,996.04
2023-04-29T00:21:12.974Z,996.03
2023-04-29T00:22:12.823Z,996.04
2023-04-29T00:23:13.728Z,996.04
2023-04-29T00:24:13.613Z,996.02
2023-04-29T00:25:13.573Z,996.05
2023-04-29T00:26:13.537Z,996.06
2023-04-29T00:27:13.871Z,996.18
2023-04-29T00:28:13.825Z,996.24
2023-04-29T00:29:13.806Z,996.11
2023-04-29T00:30:13.789Z,996.15
2023-04-29T00:31:13.813Z,996.13
2023-04-29T00:32:14.043Z,996.12
2023-04-29T00:33:12.960Z,996.14
2023-04-29T00:34:13.318Z,996.18
2023-04-29T00:35:13.443Z,996.21
2023-04-29T00:36:13.740Z,996.18
2023-04-29T00:37:13.641Z,996.18
2023-04-29T00:38:13.627Z,996.25
2023-04-29T00:39:15.154Z,996.25
2023-04-29T00:40:13.441Z,996.26
2023-04-29T00:41:13.408Z,996.23
2023-04-29T00:42:13.482Z,996.21
2023-04-29T00:43:13.550Z,996.25
2023-04-29T00:44:14.118Z,996.25
2023-04-29T00:45:13.633Z,996.29
2023-04-29T00:46:13.661Z,996.29
2023-04-29T00:47:14.150Z,996.29
2023-04-29T00:48:13.473Z,996.26
2023-04-29T00:49:13.666Z,996.33
2023-04-29T00:50:13.574Z,996.29
2023-04-29T00:51:13.621Z,996.41
2023-04-29T00:52:13.517Z,996.39
2023-04-29T00:53:13.390Z,996.36
2023-04-29T00:54:13.225Z,996.38
2023-04-29T00:55:13.224Z,996.39
2023-04-29T00:56:13.401Z,996.43
2023-04-29T00:57:13.562Z,996.40
2023-04-29T00:58:13.583Z,996.42
2023-04-29T00:59:13.584Z,996.45
2023-04-29T01:00:13.513Z,996.44
2023-04-29T01:01:13.448Z,996.50
2023-04-29T01:02:13.272Z,996.50
2023-04-29T01:03:13.324Z,996.50
2023-04-29T01:04:13.882Z,996.48
2023-04-29T01:05:13.123Z,996.52
2023-04-29T01:06:13.058Z,996.53
2023-04-29T01:07:12.988Z,996.53
2023-04-29T01:08:12.911Z,996.57
2023-04-29T01:09:13.186Z,996.57
2023-04-29T01:10:14.537Z,996.59
2023-04-29T01:11:14.739Z,996.59
2023-04-29T01:12:13.634Z,996.65
2023-04-29T01:13:13.454Z,996.60
2023-04-29T01:14:13.487Z,996.57
2023-04-29T01:15:13.555Z,996.57
2023-04-29T01:16:13.494Z,996.58
2023-04-29T01:17:13.607Z,996.61
2023-04-29T01:18:13.520Z,996.60
2023-04-29T01:19:13.354Z,996.64
2023-04-29T01:20:13.217Z,996.62
2023-04-29T01:21:13.130Z,996.65
2023-04-29T01:22:12.981Z,996.64
2023-04-29T01:23:13.005Z,996.67
2023-04-29T01:24:13.239Z,996.65
2023-04-29T01:25:13.101Z,996.68
2023-04-29T01:26:13.107Z,996.70
2023-04-29T01:27:13.308Z,996.70
2023-04-29T01:28:13.202Z,996.73
2023-04-29T01:29:13.081Z,996.72
2023-04-29T01:30:13.203Z,996.72
2023-04-29T01:31:13.426Z,996.75
2023-04-29T01:32:13.666Z,996.72
2023-04-29T01:33:13.769Z,996.74
2023-04-29T01:34:13.742Z,996.73
2023-04-29T01:35:13.658Z,996.78
2023-04-29T01:36:13.502Z,996.78
2023-04-29T01:37:18.548Z,996.74
2023-04-29T01:38:13.434Z,996.76
2023-04-29T01:39:13.316Z,996.77
2023-04-29T01:40:13.408Z,996.75
2023-04-29T01:41:18.500Z,996.80
2023-04-29T01:42:14.393Z,996.76
2023-04-29T01:43:13.450Z,996.80
2023-04-29T01:44:13.595Z,996.80
2023-04-29T01:45:13.676Z,996.78
2023-04-29T01:46:23.934Z,996.82
2023-04-29T01:47:12.872Z,996.82
2023-04-29T01:48:13.859Z,996.81
2023-04-29T01:49:13.936Z,996.82
2023-04-29T01:50:12.744Z,996.79
2023-04-29T01:51:13.670Z,996.77
2023-04-29T01:52:13.498Z,996.78
2023-04-29T01:53:13.433Z,996.83
2023-04-29T01:54:13.248Z,996.78
2023-04-29T01:55:13.186Z,996.79
2023-04-29T01:56:13.669Z,996.85
2023-04-29T01:57:13.604Z,996.82
2023-04-29T01:58:13.456Z,996.84
2023-04-29T01:59:13.512Z,996.84
2023-04-29T02:00:13.459Z,996.86
2023-04-29T02:01:13.448Z,996.86
2023-04-29T02:02:13.696Z,996.84
2023-04-29T02:03:13.689Z,996.85
2023-04-29T02:04:13.978Z,996.90
2023-04-29T02:05:13.108Z,996.85
2023-04-29T02:06:13.250Z,996.85
2023-04-29T02:07:13.225Z,996.91
2023-04-29T02:08:13.367Z,996.85
2023-04-29T02:09:13.476Z,996.87
2023-04-29T02:10:13.389Z,996.90
2023-04-29T02:11:13.854Z,996.90
2023-04-29T02:12:14.060Z,996.93
2023-04-29T02:13:13.081Z,996.95
2023-04-29T02:14:12.915Z,996.95
2023-04-29T02:15:12.887Z,996.98
2023-04-29T02:16:14.328Z,997.00
2023-04-29T02:17:13.610Z,997.00
2023-04-29T02:18:13.588Z,997.00
2023-04-29T02:19:13.517Z,997.02
2023-04-29T02:20:13.502Z,997.03
2023-04-29T02:21:13.515Z,997.06
2023-04-29T02:22:13.384Z,997.12
2023-04-29T02:23:13.506Z,997.01
2023-04-29T02:24:14.013Z,997.07
2023-04-29T02:25:13.119Z,997.10
2023-04-29T02:26:13.379Z,997.15
2023-04-29T02:27:13.631Z,997.15
2023-04-29T02:28:14.106Z,997.14
2023-04-29T02:29:13.052Z,997.16
2023-04-29T02:30:12.906Z,997.14
2023-04-29T02:31:12.797Z,997.21
2023-04-29T02:32:13.783Z,997.16
2023-04-29T02:33:14.355Z,997.20
2023-04-29T02:34:13.189Z,997.20
2023-04-29T02:35:13.352Z,997.23
2023-04-29T02:36:13.334Z,997.19
2023-04-29T02:37:13.280Z,997.23
2023-04-29T02:38:13.540Z,997.23
2023-04-29T02:39:13.903Z,997.28
2023-04-29T02:40:12.939Z,997.37
2023-04-29T02:41:12.891Z,997.26
2023-04-29T02:42:14.112Z,997.32
2023-04-29T02:43:13.345Z,997.30
2023-04-29T02:44:13.619Z,997.33
2023-04-29T02:45:13.523Z,997.33
2023-04-29T02:46:13.472Z,997.38
2023-04-29T02:47:13.552Z,997.35
2023-04-29T02:48:13.473Z,997.36
2023-04-29T02:49:13.883Z,997.38
2023-04-29T02:50:13.120Z,997.38
2023-04-29T02:51:13.208Z,997.39
2023-04-29T02:52:13.144Z,997.39
2023-04-29T02:53:13.108Z,997.43
2023-04-29T02:54:13.055Z,997.42
2023-04-29T02:55:13.118Z,997.44
2023-04-29T02:56:13.551Z,997.44
2023-04-29T02:57:13.752Z,997.44
2023-04-29T02:58:13.769Z,997.50
2023-04-29T02:59:12.960Z,997.49
2023-04-29T03:00:12.893Z,997.50
2023-04-29T03:01:13.893Z,997.50
2023-04-29T03:02:12.810Z,997.51
2023-04-29T03:03:13.274Z,997.48
2023-04-29T03:04:13.676Z,997.54
2023-04-29T03:05:18.714Z,997.57
2023-04-29T03:06:13.820Z,997.51
2023-04-29T03:07:13.810Z,997.53
2023-04-29T03:08:13.805Z,997.54
2023-04-29T03:09:13.803Z,997.53
2023-04-29T03:10:13.721Z,997.56
2023-04-29T03:11:13.656Z,997.57
2023-04-29T03:12:14.099Z,997.62
2023-04-29T03:13:13.151Z,997.59
2023-04-29T03:14:13.093Z,997.64
2023-04-29T03:15:13.016Z,997.62
2023-04-29T03:16:13.603Z,997.57
2023-04-29T03:17:13.894Z,997.54
2023-04-29T03:18:14.058Z,997.59
2023-04-29T03:19:13.314Z,997.59
2023-04-29T03:20:14.505Z,997.59
2023-04-29T03:21:13.399Z,997.64
2023-04-29T03:22:13.564Z,997.64
2023-04-29T03:23:13.621Z,997.64
2023-04-29T03:24:13.655Z,997.66
2023-04-29T03:25:14.313Z,997.62
2023-04-29T03:26:13.225Z,997.63
2023-04-29T03:27:13.164Z,997.61
2023-04-29T03:28:13.271Z,997.65
2023-04-29T03:29:13.942Z,997.62
2023-04-29T03:30:12.857Z,997.59
2023-04-29T03:31:14.059Z,997.60
2023-04-29T03:32:13.222Z,997.63
2023-04-29T03:33:13.242Z,997.65
2023-04-29T03:34:13.115Z,997.65
2023-04-29T03:35:15.521Z,997.65
2023-04-29T03:36:13.342Z,997.65
2023-04-29T03:37:13.360Z,997.68
2023-04-29T03:38:13.280Z,997.71
2023-04-29T03:39:13.387Z,997.70
2023-04-29T03:40:13.334Z,997.72
2023-04-29T03:41:13.327Z,997.70
2023-04-29T03:42:13.205Z,997.72
2023-04-29T03:43:13.132Z,997.70
2023-04-29T03:44:13.089Z,997.74
2023-04-29T03:45:12.983Z,997.76
2023-04-29T03:46:12.919Z,997.77
2023-04-29T03:47:12.900Z,997.79
2023-04-29T03:48:12.855Z,997.81
2023-04-29T03:49:23.786Z,997.76
2023-04-29T03:50:13.694Z,997.79
2023-04-29T03:51:13.525Z,997.78
2023-04-29T03:52:13.394Z,997.84
2023-04-29T03:53:13.593Z,997.80
2023-04-29T03:54:13.570Z,997.84
2023-04-29T03:55:13.573Z,997.76
2023-04-29T03:56:13.465Z,997.85
2023-04-29T03:57:13.341Z,997.81
2023-04-29T03:58:14.012Z,997.85
2023-04-29T03:59:13.024Z,997.80
2023-04-29T04:00:12.915Z,997.84
2023-04-29T04:01:12.787Z,997.83
2023-04-29T04:02:13.814Z,997.86
2023-04-29T04:03:14.217Z,997.85
2023-04-29T04:04:13.570Z,997.90
2023-04-29T04:05:13.796Z,997.88
2023-04-29T04:06:13.389Z,997.90
2023-04-29T04:07:13.296Z,997.93
2023-04-29T04:08:13.332Z,997.91
2023-04-29T04:09:13.204Z,997.91
2023-04-29T04:10:13.208Z,997.88
2023-04-29T04:11:13.385Z,997.89
2023-04-29T04:12:13.530Z,997.94
2023-04-29T04:13:13.841Z,997.95
2023-04-29T04:14:13.774Z,998.00
2023-04-29T04:15:13.607Z,998.00
2023-04-29T04:16:13.497Z,998.04
2023-04-29T04:17:13.857Z,998.06
2023-04-29T04:18:13.888Z,998.04
2023-04-29T04:19:14.332Z,998.08
2023-04-29T04:20:13.806Z,998.13
2023-04-29T04:21:13.612Z,998.09
2023-04-29T04:22:13.476Z,998.13
2023-04-29T04:23:14.145Z,998.11
2023-04-29T04:24:13.174Z,998.11
2023-04-29T04:25:13.388Z,998.12
2023-04-29T04:26:13.320Z,998.13
2023-04-29T04:27:13.258Z,998.19
2023-04-29T04:28:13.148Z,998.18
2023-04-29T04:29:13.178Z,998.19
2023-04-29T04:30:13.221Z,998.25
2023-04-29T04:31:13.624Z,998.23
2023-04-29T04:32:13.552Z,998.25
2023-04-29T04:33:13.458Z,998.24
2023-04-29T04:34:13.424Z,998.22
2023-04-29T04:35:13.239Z,998.23
2023-04-29T04:36:13.654Z,998.22
2023-04-29T04:37:13.667Z,998.25
2023-04-29T04:38:13.758Z,998.22
2023-04-29T04:39:13.771Z,998.28
2023-04-29T04:40:13.839Z,998.28
2023-04-29T04:41:14.042Z,998.27
2023-04-29T04:42:13.054Z,998.30
2023-04-29T04:43:12.952Z,998.33
2023-04-29T04:44:12.832Z,998.33
2023-04-29T04:45:13.735Z,998.29
2023-04-29T04:46:13.860Z,998.33
2023-04-29T04:47:12.829Z,998.37
2023-04-29T04:48:13.738Z,998.36
2023-04-29T04:49:13.888Z,998.41
2023-04-29T04:50:15.154Z,998.42
2023-04-29T04:51:13.319Z,998.35
2023-04-29T04:52:13.431Z,998.41
2023-04-29T04:53:13.381Z,998.38
2023-04-29T04:54:13.308Z,998.46
2023-04-29T04:55:15.189Z,998.44
2023-04-29T04:56:13.453Z,998.45
2023-04-29T04:57:45.603Z,998.48
2023-04-29T04:58:13.957Z,998.48
2023-04-29T04:59:13.048Z,998.47
2023-04-29T05:00:13.101Z,998.48
2023-04-29T05:01:12.987Z,998.52
2023-04-29T05:02:13.309Z,998.54
2023-04-29T05:03:13.671Z,998.53
2023-04-29T05:04:13.910Z,998.55
2023-04-29T05:05:12.898Z,998.58
2023-04-29T05:06:13.221Z,998.56
2023-04-29T05:07:13.209Z,998.60
2023-04-29T05:08:13.254Z,998.56
2023-04-29T05:09:13.447Z,998.61
2023-04-29T05:10:13.519Z,998.58
2023-04-29T05:11:13.469Z,998.64
2023-04-29T05:12:13.514Z,998.62
2023-04-29T05:13:13.506Z,998.63
2023-04-29T05:14:13.313Z,998.65
2023-04-29T05:15:13.191Z,998.70
2023-04-29T05:16:13.388Z,998.65
2023-04-29T05:17:13.327Z,998.68
2023-04-29T05:18:13.593Z,998.62
2023-04-29T05:19:13.477Z,998.70
2023-04-29T05:20:13.633Z,998.70
2023-04-29T05:21:15.997Z,998.65
2023-04-29T05:22:13.089Z,998.74
2023-04-29T05:23:13.497Z,998.71
2023-04-29T05:24:13.906Z,998.71
2023-04-29T05:25:12.805Z,998.69
2023-04-29T05:26:36.878Z,998.69
2023-04-29T05:27:14.188Z,998.69
2023-04-29T05:28:13.511Z,998.73
2023-04-29T05:29:13.477Z,998.73
2023-04-29T05:31:16.369Z,998.72
2023-04-29T05:32:13.694Z,998.75
2023-04-29T05:33:13.737Z,998.77
2023-04-29T05:34:14.066Z,998.76
2023-04-29T05:35:13.071Z,998.82
2023-04-29T05:36:13.105Z,998.82
2023-04-29T05:37:13.085Z,998.82
2023-04-29T05:38:13.825Z,998.82
2023-04-29T05:39:14.194Z,998.84
2023-04-29T05:40:13.251Z,998.88
2023-04-29T05:41:13.309Z,998.82
2023-04-29T05:42:13.424Z,998.90
2023-04-29T05:43:13.486Z,998.89
2023-04-29T05:44:13.565Z,998.90
2023-04-29T05:45:13.712Z,998.89
2023-04-29T05:46:13.723Z,998.92
2023-04-29T05:47:13.904Z,998.94
2023-04-29T05:48:14.371Z,998.99
2023-04-29T05:49:13.332Z,998.94
2023-04-29T05:50:13.308Z,998.98
2023-04-29T05:51:13.546Z,999.01
2023-04-29T05:52:13.718Z,999.01
2023-04-29T05:53:13.901Z,999.03
2023-04-29T05:54:12.965Z,999.09
2023-04-29T05:55:12.953Z,999.09
2023-04-29T05:56:13.222Z,999.11
2023-04-29T05:57:13.626Z,999.12
2023-04-29T05:58:13.649Z,999.11
2023-04-29T05:59:13.815Z,999.12
2023-04-29T06:00:13.995Z,999.14
2023-04-29T06:01:12.825Z,999.15
2023-04-29T06:02:13.932Z,999.22
2023-04-29T06:03:13.424Z,999.19
2023-04-29T06:04:13.856Z,999.20
2023-04-29T06:05:13.483Z,999.24
2023-04-29T06:06:14.094Z,999.21
2023-04-29T06:07:13.417Z,999.22
2023-04-29T06:08:13.393Z,999.24
2023-04-29T06:09:26.384Z,999.26
2023-04-29T06:10:12.920Z,999.26
2023-04-29T06:11:13.086Z,999.30
2023-04-29T06:12:13.131Z,999.32
2023-04-29T06:13:13.439Z,999.30
2023-04-29T06:14:13.457Z,999.32
2023-04-29T06:15:13.553Z,999.31
2023-04-29T06:16:13.613Z,999.31
2023-04-29T06:17:13.659Z,999.36
2023-04-29T06:18:13.615Z,999.35
2023-04-29T06:19:14.056Z,999.36
2023-04-29T06:20:13.167Z,999.41
2023-04-29T06:21:13.320Z,999.39
2023-04-29T06:22:13.578Z,999.39
2023-04-29T06:23:13.534Z,999.42
2023-04-29T06:24:13.889Z,999.45
2023-04-29T06:25:14.146Z,999.45
2023-04-29T06:26:14.644Z,999.50
2023-04-29T06:27:13.634Z,999.52
2023-04-29T06:28:13.499Z,999.52
2023-04-29T06:29:13.520Z,999.51
2023-04-29T06:30:13.701Z,999.52
2023-04-29T06:31:13.628Z,999.50
2023-04-29T06:32:13.987Z,999.53
2023-04-29T06:33:13.261Z,999.52
2023-04-29T06:34:13.339Z,999.53
2023-04-29T06:35:13.567Z,999.58
2023-04-29T06:36:13.855Z,999.57
2023-04-29T06:37:13.777Z,999.59
2023-04-29T06:38:13.877Z,999.60
2023-04-29T06:39:13.858Z,999.60
2023-04-29T06:40:13.840Z,999.63
2023-04-29T06:41:13.869Z,999.63
2023-04-29T06:42:13.814Z,999.61
2023-04-29T06:43:13.647Z,999.65
2023-04-29T06:44:13.704Z,999.69
2023-04-29T06:45:13.598Z,999.70
2023-04-29T06:46:13.759Z,999.69
2023-04-29T06:47:13.901Z,999.77
2023-04-29T06:48:12.924Z,999.80
2023-04-29T06:49:18.146Z,999.80
2023-04-29T06:50:13.083Z,999.81
2023-04-29T06:51:13.195Z,999.82
2023-04-29T06:52:13.166Z,999.80
2023-04-29T06:53:13.045Z,999.82
2023-04-29T06:54:13.049Z,999.84
2023-04-29T06:55:13.116Z,999.84
2023-04-29T06:56:14.578Z,999.84
2023-04-29T06:57:13.334Z,999.84
2023-04-29T06:58:13.570Z,999.90
2023-04-29T06:59:13.463Z,999.84
2023-04-29T07:00:13.694Z,999.88
2023-04-29T07:01:13.726Z,999.90
2023-04-29T07:02:13.806Z,999.90
2023-04-29T07:03:13.919Z,999.95
2023-04-29T07:04:13.630Z,999.97
2023-04-29T07:05:13.709Z,999.96
2023-04-29T07:06:13.684Z,999.97
2023-04-29T07:07:13.670Z,999.98
2023-04-29T07:08:13.976Z,1000.00
2023-04-29T07:09:13.088Z,1000.04
2023-04-29T07:10:13.258Z,1000.06
2023-04-29T07:11:13.352Z,1000.10
2023-04-29T07:12:13.402Z,1000.04
2023-04-29T07:13:13.488Z,1000.10
2023-04-29T07:14:13.591Z,1000.08
2023-04-29T07:15:13.795Z,1000.13
2023-04-29T07:16:14.084Z,1000.14
2023-04-29T07:17:14.423Z,1000.21
2023-04-29T07:18:13.301Z,1000.18
2023-04-29T07:19:13.354Z,1000.23
2023-04-29T07:20:13.349Z,1000.25
2023-04-29T07:21:13.712Z,1000.24
2023-04-29T07:22:13.725Z,1000.25
2023-04-29T07:23:13.854Z,1000.26
2023-04-29T07:24:13.719Z,1000.30
2023-04-29T07:25:13.820Z,1000.32
2023-04-29T07:26:13.721Z,1000.33
2023-04-29T07:27:13.714Z,1000.33
2023-04-29T07:28:13.586Z,1000.36
2023-04-29T07:29:13.599Z,1000.39
2023-04-29T07:31:13.450Z,1000.37
2023-04-29T07:32:13.814Z,1000.45
2023-04-29T07:33:13.654Z,1000.48
2023-04-29T07:34:13.563Z,1000.45
2023-04-29T07:35:13.758Z,1000.48
2023-04-29T07:36:14.079Z,1000.50
2023-04-29T07:37:13.123Z,1000.50
2023-04-29T07:38:13.007Z,1000.48
2023-04-29T07:39:12.986Z,1000.53
2023-04-29T07:40:12.878Z,1000.54
2023-04-29T07:41:12.909Z,1000.56
2023-04-29T07:42:13.033Z,1000.57
2023-04-29T07:43:13.211Z,1000.61
2023-04-29T07:44:13.201Z,1000.61
2023-04-29T07:45:13.111Z,1000.60
2023-04-29T07:46:13.401Z,1000.63
2023-04-29T07:47:13.656Z,1000.65
2023-04-29T07:48:14.100Z,1000.67
2023-04-29T07:49:12.979Z,1000.70
2023-04-29T07:50:12.975Z,1000.70
2023-04-29T07:51:13.208Z,1000.71
2023-04-29T07:52:13.250Z,1000.72
2023-04-29T07:53:13.184Z,1000.74
2023-04-29T07:54:13.246Z,1000.76
2023-04-29T07:55:13.154Z,1000.77
2023-04-29T07:56:13.472Z,1000.80
2023-04-29T07:57:13.549Z,1000.84
2023-04-29T07:58:13.678Z,1000.82
2023-04-29T07:59:13.839Z,1000.87
2023-04-29T08:00:13.699Z,1000.88
2023-04-29T08:01:13.838Z,1000.86
2023-04-29T08:02:13.972Z,1000.91
2023-04-29T08:03:13.377Z,1000.90
2023-04-29T08:04:14.410Z,1000.91
2023-04-29T08:05:13.878Z,1000.95
2023-04-29T08:06:13.323Z,1000.94
2023-04-29T08:07:13.690Z,1000.98
2023-04-29T08:08:13.715Z,1000.94
2023-04-29T08:09:13.635Z,1001.01
2023-04-29T08:10:13.505Z,1001.01
2023-04-29T08:11:13.645Z,1000.98
2023-04-29T08:12:13.957Z,1001.00
2023-04-29T08:13:13.251Z,1001.01
2023-04-29T08:14:13.285Z,1001.02
2023-04-29T08:15:14.745Z,1001.02
2023-04-29T08:16:14.173Z,1001.05
2023-04-29T08:17:13.461Z,1001.04
2023-04-29T08:18:13.407Z,1001.04
2023-04-29T08:19:13.313Z,1001.07
2023-04-29T08:20:13.427Z,1001.06
2023-04-29T08:21:13.580Z,1001.07
2023-04-29T08:22:13.726Z,1001.05
2023-04-29T08:23:13.823Z,1001.09
2023-04-29T08:24:14.014Z,1001.11
2023-04-29T08:25:12.859Z,1001.04
2023-04-29T08:26:13.973Z,1001.10
2023-04-29T08:27:13.186Z,1001.12
2023-04-29T08:28:13.315Z,1001.08
2023-04-29T08:29:13.411Z,1001.09
2023-04-29T08:30:13.475Z,1001.12
2023-04-29T08:31:13.363Z,1001.13
2023-04-29T08:32:13.401Z,1001.15
2023-04-29T08:33:13.517Z,1001.14
2023-04-29T08:34:13.624Z,1001.13
2023-04-29T08:35:13.773Z,1001.16
2023-04-29T08:36:13.785Z,1001.18
2023-04-29T08:37:14.438Z,1001.20
2023-04-29T08:38:13.136Z,1001.20
2023-04-29T08:39:13.179Z,1001.22
2023-04-29T08:40:14.204Z,1001.27
2023-04-29T08:41:13.226Z,1001.25
2023-04-29T08:42:18.288Z,1001.30
2023-04-29T08:43:13.442Z,1001.31
2023-04-29T08:44:13.491Z,1001.30
2023-04-29T08:45:13.547Z,1001.35
2023-04-29T08:46:13.625Z,1001.34
2023-04-29T08:47:13.916Z,1001.33
2023-04-29T08:48:13.399Z,1001.33
2023-04-29T08:49:13.540Z,1001.31
2023-04-29T08:50:13.720Z,1001.31
2023-04-29T08:51:13.532Z,1001.37
2023-04-29T08:52:14.609Z,1001.39
2023-04-29T08:53:14.000Z,1001.39
2023-04-29T08:54:13.009Z,1001.40
2023-04-29T08:55:13.060Z,1001.41
2023-04-29T08:56:12.932Z,1001.39
2023-04-29T08:57:12.749Z,1001.44
2023-04-29T08:58:13.756Z,1001.50
2023-04-29T08:59:13.849Z,1001.48
2023-04-29T09:00:14.219Z,1001.46
2023-04-29T09:01:13.256Z,1001.52
2023-04-29T09:02:13.519Z,1001.50
2023-04-29T09:03:13.981Z,1001.50
2023-04-29T09:04:13.202Z,1001.52
2023-04-29T09:05:13.357Z,1001.50
2023-04-29T09:06:13.226Z,1001.48
2023-04-29T09:07:13.095Z,1001.51
2023-04-29T09:08:13.078Z,1001.46
2023-04-29T09:09:15.510Z,1001.50
2023-04-29T09:10:13.710Z,1001.49
2023-04-29T09:11:13.574Z,1001.51
2023-04-29T09:12:13.656Z,1001.52
2023-04-29T09:13:13.788Z,1001.52
2023-04-29T09:14:13.774Z,1001.54
2023-04-29T09:15:14.000Z,1001.56
2023-04-29T09:16:13.344Z,1001.56
2023-04-29T09:17:13.261Z,1001.56
2023-04-29T09:18:13.188Z,1001.62
2023-04-29T09:19:13.202Z,1001.60
2023-04-29T09:20:13.672Z,1001.63
2023-04-29T09:21:13.625Z,1001.62
2023-04-29T09:22:13.611Z,1001.65
2023-04-29T09:23:13.853Z,1001.62
2023-04-29T09:24:15.241Z,1001.60
2023-04-29T09:25:13.463Z,1001.65
2023-04-29T09:26:15.538Z,1001.65
2023-04-29T09:27:13.655Z,1001.67
2023-04-29T09:28:13.859Z,1001.66
2023-04-29T09:29:14.022Z,1001.66
2023-04-29T09:30:13.272Z,1001.66
2023-04-29T09:31:13.383Z,1001.72
2023-04-29T09:32:13.510Z,1001.72
2023-04-29T09:33:13.402Z,1001.73
2023-04-29T09:34:13.539Z,1001.75
2023-04-29T09:35:13.582Z,1001.79
2023-04-29T09:36:13.576Z,1001.79
2023-04-29T09:37:13.768Z,1001.79
2023-04-29T09:38:13.880Z,1001.80
2023-04-29T09:39:13.932Z,1001.83
2023-04-29T09:40:13.020Z,1001.84
2023-04-29T09:41:13.403Z,1001.84
2023-04-29T09:42:13.753Z,1001.84
2023-04-29T09:43:13.126Z,1001.81
2023-04-29T09:44:13.251Z,1001.81
2023-04-29T09:45:13.452Z,1001.88
2023-04-29T09:46:14.004Z,1001.87
2023-04-29T09:47:13.076Z,1001.88
2023-04-29T09:48:13.202Z,1001.87
2023-04-29T09:49:18.406Z,1001.88
2023-04-29T09:50:13.451Z,1001.91
2023-04-29T09:51:16.090Z,1001.89
2023-04-29T09:52:13.212Z,1001.90
2023-04-29T09:53:13.229Z,1001.95
2023-04-29T09:54:13.320Z,1001.90
2023-04-29T09:55:13.141Z,1001.91
2023-04-29T09:56:13.792Z,1001.91
2023-04-29T09:57:13.791Z,1001.90
2023-04-29T09:58:14.043Z,1001.91
2023-04-29T09:59:13.053Z,1001.91
2023-04-29T10:00:12.901Z,1001.91
2023-04-29T10:01:12.938Z,1001.91
2023-04-29T10:02:13.035Z,1001.86
2023-04-29T10:03:13.470Z,1001.90
2023-04-29T10:04:13.601Z,1001.90
2023-04-29T10:05:14.025Z,1001.88
2023-04-29T10:06:13.470Z,1001.89
2023-04-29T10:07:13.704Z,1001.91
2023-04-29T10:08:13.788Z,1001.90
2023-04-29T10:09:14.332Z,1001.94
2023-04-29T10:10:13.449Z,1001.89
2023-04-29T10:11:14.757Z,1001.95
2023-04-29T10:12:13.829Z,1001.93
2023-04-29T10:13:14.201Z,1001.93
2023-04-29T10:14:13.325Z,1001.94
2023-04-29T10:15:13.361Z,1001.95
2023-04-29T10:16:15.474Z,1002.04
2023-04-29T10:17:13.537Z,1001.97
2023-04-29T10:18:13.863Z,1002.00
2023-04-29T10:19:13.945Z,1002.00
2023-04-29T10:20:12.962Z,1002.00
2023-04-29T10:21:13.465Z,1002.06
2023-04-29T10:22:13.576Z,1002.04
2023-04-29T10:23:13.564Z,1002.05
2023-04-29T10:24:13.404Z,1002.04
2023-04-29T10:25:13.385Z,1002.06
2023-04-29T10:26:13.405Z,1002.03
2023-04-29T10:27:13.469Z,1002.03
2023-04-29T10:28:13.440Z,1002.04
2023-04-29T10:29:13.734Z,1002.01
2023-04-29T10:30:13.655Z,1002.02
2023-04-29T10:31:14.212Z,1002.02
2023-04-29T10:32:13.684Z,1002.03
2023-04-29T10:33:14.212Z,1002.00
2023-04-29T10:34:13.581Z,1001.99
2023-04-29T10:35:13.970Z,1001.99
2023-04-29T10:36:13.379Z,1002.05
2023-04-29T10:37:13.688Z,1002.04
2023-04-29T10:38:13.894Z,1002.05
2023-04-29T10:39:12.925Z,1002.02
2023-04-29T10:40:12.988Z,1002.02
2023-04-29T10:41:13.039Z,1002.04
2023-04-29T10:42:13.328Z,1002.02
2023-04-29T10:43:13.364Z,1002.02
2023-04-29T10:44:13.762Z,1002.07
2023-04-29T10:45:13.735Z,1002.11
2023-04-29T10:46:13.839Z,1002.10
2023-04-29T10:47:13.896Z,1002.09
2023-04-29T10:48:13.023Z,1002.13
2023-04-29T10:49:18.216Z,1002.11
2023-04-29T10:50:13.263Z,1002.13
2023-04-29T10:51:13.133Z,1002.09
2023-04-29T10:52:13.073Z,1002.11
2023-04-29T10:53:13.004Z,1002.12
2023-04-29T10:54:13.412Z,1002.14
2023-04-29T10:55:13.438Z,1002.12
2023-04-29T10:56:14.344Z,1002.16
2023-04-29T10:57:13.290Z,1002.14
2023-04-29T10:58:13.151Z,1002.17
2023-04-29T10:59:13.368Z,1002.18
2023-04-29T11:00:14.686Z,1002.18
2023-04-29T11:01:13.898Z,1002.21
2023-04-29T11:02:13.079Z,1002.22
2023-04-29T11:03:13.083Z,1002.18
2023-04-29T11:04:13.179Z,1002.19
2023-04-29T11:05:13.639Z,1002.20
2023-04-29T11:06:13.612Z,1002.24
2023-04-29T11:07:13.823Z,1002.20
2023-04-29T11:08:13.728Z,1002.23
2023-04-29T11:09:13.641Z,1002.23
2023-04-29T11:10:13.717Z,1002.20
2023-04-29T11:11:13.746Z,1002.22
2023-04-29T11:12:13.733Z,1002.18
2023-04-29T11:13:13.580Z,1002.19
2023-04-29T11:14:13.612Z,1002.23
2023-04-29T11:15:13.846Z,1002.24
2023-04-29T11:16:14.071Z,1002.28
2023-04-29T11:17:13.178Z,1002.23
2023-04-29T11:18:13.365Z,1002.21
2023-04-29T11:19:13.553Z,1002.23
2023-04-29T11:20:13.666Z,1002.24
2023-04-29T11:21:14.088Z,1002.23
2023-04-29T11:22:13.105Z,1002.24
2023-04-29T11:23:13.135Z,1002.22
2023-04-29T11:24:12.975Z,1002.19
2023-04-29T11:25:12.917Z,1002.23
2023-04-29T11:26:12.848Z,1002.23
2023-04-29T11:27:14.071Z,1002.21
2023-04-29T11:28:13.530Z,1002.22
2023-04-29T11:29:13.645Z,1002.25
2023-04-29T11:30:13.713Z,1002.23
2023-04-29T11:31:14.073Z,1002.24
2023-04-29T11:32:13.451Z,1002.29
2023-04-29T11:33:13.639Z,1002.30
2023-04-29T11:34:13.517Z,1002.32
2023-04-29T11:35:13.452Z,1002.31
2023-04-29T11:36:14.919Z,1002.31
2023-04-29T11:37:12.969Z,1002.32
2023-04-29T11:38:12.940Z,1002.34
2023-04-29T11:39:12.958Z,1002.37
2023-04-29T11:40:13.278Z,1002.39
2023-04-29T11:41:13.261Z,1002.38
2023-04-29T11:42:13.220Z,1002.40
2023-04-29T11:43:13.328Z,1002.39
2023-04-29T11:44:13.710Z,1002.37
2023-04-29T11:45:13.908Z,1002.38
2023-04-29T11:46:13.055Z,1002.35
2023-04-29T11:47:13.208Z,1002.39
2023-04-29T11:48:13.493Z,1002.38
2023-04-29T11:49:13.697Z,1002.39
2023-04-29T11:50:13.923Z,1002.42
2023-04-29T11:51:13.108Z,1002.37
2023-04-29T11:52:13.069Z,1002.43
2023-04-29T11:53:13.135Z,1002.37
2023-04-29T11:54:13.482Z,1002.40
2023-04-29T11:55:13.563Z,1002.42
2023-04-29T11:56:13.667Z,1002.46
2023-04-29T11:57:13.572Z,1002.45
2023-04-29T11:58:13.749Z,1002.45
2023-04-29T11:59:13.910Z,1002.47
2023-04-29T12:00:13.128Z,1002.47
2023-04-29T12:01:13.154Z,1002.48
2023-04-29T12:02:13.176Z,1002.49
2023-04-29T12:03:13.449Z,1002.47
2023-04-29T12:04:14.066Z,1002.46
2023-04-29T12:05:13.946Z,1002.45
2023-04-29T12:06:13.152Z,1002.44
2023-04-29T12:07:13.062Z,1002.43
2023-04-29T12:08:13.036Z,1002.46
2023-04-29T12:09:13.150Z,1002.47
2023-04-29T12:10:13.573Z,1002.46
2023-04-29T12:11:13.812Z,1002.45
2023-04-29T12:12:14.026Z,1002.44
2023-04-29T12:13:12.987Z,1002.42
2023-04-29T12:14:13.299Z,1002.42
2023-04-29T12:15:13.410Z,1002.40
2023-04-29T12:16:13.819Z,1002.37
2023-04-29T12:18:13.167Z,1002.38
2023-04-29T12:19:13.355Z,1002.43
2023-04-29T12:20:13.366Z,1002.41
2023-04-29T12:21:13.668Z,1002.40